createdAt,value
2023-06-07T00:01:55.048Z,86.43
2023-06-07T00:04:22.085Z,86.52
2023-06-07T00:06:51.028Z,86.59
2023-06-07T00:09:17.497Z,86.50
2023-06-07T00:11:44.313Z,86.46
2023-06-07T00:14:10.784Z,86.58
2023-06-07T00:16:40.328Z,86.60
2023-06-07T00:19:06.798Z,86.54
2023-06-07T00:21:33.247Z,86.45
2023-06-07T00:23:59.727Z,86.47
2023-06-07T00:26:26.262Z,86.66
2023-06-07T00:28:52.992Z,86.53
2023-06-07T00:31:19.397Z,86.41
2023-06-07T00:33:45.959Z,86.48
2023-06-07T00:36:12.366Z,86.22
2023-06-07T00:38:38.790Z,86.33
2023-06-07T00:41:05.217Z,86.30
2023-06-07T00:43:33.988Z,86.50
2023-06-07T00:46:00.667Z,86.72
2023-06-07T00:48:28.423Z,86.78
2023-06-07T00:50:54.933Z,86.84
2023-06-07T00:53:21.746Z,86.98
2023-06-07T00:55:48.400Z,87.01
2023-06-07T00:58:14.853Z,86.97
2023-06-07T01:03:42.040Z,86.67
2023-06-07T01:06:08.493Z,87.01
2023-06-07T01:08:35.066Z,87.26
2023-06-07T01:11:02.167Z,87.51
2023-06-07T01:13:29.889Z,87.43
2023-06-07T01:15:56.450Z,87.35
2023-06-07T01:18:23.191Z,87.38
2023-06-07T01:20:52.711Z,87.46
2023-06-07T01:23:19.243Z,87.64
2023-06-07T01:25:45.770Z,87.76
2023-06-07T01:28:12.530Z,88.05
2023-06-07T01:30:39.364Z,88.18
2023-06-07T01:33:06.390Z,88.20
2023-06-07T01:35:33.472Z,88.32
2023-06-07T01:38:00.807Z,88.29
2023-06-07T01:40:27.776Z,88.26
2023-06-07T01:42:54.740Z,88.03
2023-06-07T01:45:21.280Z,87.95
2023-06-07T01:47:47.671Z,87.95
2023-06-07T01:50:20.094Z,88.15
2023-06-07T01:52:46.434Z,88.25
2023-06-07T01:55:12.865Z,88.57
2023-06-07T01:58:05.301Z,88.60
2023-06-07T02:00:35.695Z,88.81
2023-06-07T02:03:05.278Z,88.81
2023-06-07T02:05:37.193Z,88.89
2023-06-07T02:08:07.756Z,88.95
2023-06-07T02:10:35.332Z,89.01
2023-06-07T02:13:03.506Z,88.85
2023-06-07T02:15:29.925Z,88.81
2023-06-07T02:17:59.388Z,88.83
2023-06-07T02:20:26.648Z,88.96
2023-06-07T02:22:54.717Z,89.19
2023-06-07T02:25:21.204Z,89.21
2023-06-07T02:27:49.223Z,89.13
2023-06-07T02:30:15.724Z,89.18
2023-06-07T02:32:42.559Z,89.03
2023-06-07T02:35:09.115Z,89.26
2023-06-07T02:37:35.587Z,89.24
2023-06-07T02:40:02.532Z,89.26
2023-06-07T02:42:30.538Z,89.31
2023-06-07T02:44:57.153Z,89.47
2023-06-07T02:47:23.713Z,89.43
2023-06-07T02:49:50.431Z,89.33
2023-06-07T02:52:16.782Z,89.35
2023-06-07T02:54:43.182Z,89.23
2023-06-07T02:57:09.574Z,89.31
2023-06-07T02:59:35.990Z,89.28
2023-06-07T03:02:02.549Z,89.31
2023-06-07T03:04:29.590Z,89.43
2023-06-07T03:06:57.846Z,89.41
2023-06-07T03:09:28.671Z,89.27
2023-06-07T03:11:55.187Z,89.42
2023-06-07T03:14:22.451Z,89.57
2023-06-07T03:16:49.429Z,89.56
2023-06-07T03:19:16.310Z,89.67
2023-06-07T03:21:42.949Z,89.71
2023-06-07T03:24:09.523Z,89.86
2023-06-07T03:26:36.363Z,89.88
2023-06-07T03:29:03.000Z,89.88
2023-06-07T03:31:33.076Z,89.94
2023-06-07T03:34:02.718Z,89.88
2023-06-07T03:36:29.425Z,89.79
2023-06-07T03:38:57.066Z,89.80
2023-06-07T03:41:23.641Z,89.72
2023-06-07T03:43:50.592Z,89.65
2023-06-07T03:46:17.141Z,89.60
2023-06-07T03:48:44.017Z,89.63
2023-06-07T03:51:10.440Z,89.58
2023-06-07T03:53:38.727Z,89.47
2023-06-07T03:56:05.537Z,89.39
2023-06-07T03:58:32.585Z,89.15
2023-06-07T04:01:04.258Z,89.20
2023-06-07T04:03:30.784Z,89.21
2023-06-07T04:05:59.803Z,89.24
2023-06-07T04:08:27.258Z,89.39
2023-06-07T04:10:53.715Z,89.31
2023-06-07T04:13:20.215Z,89.21
2023-06-07T04:15:46.889Z,89.38
2023-06-07T04:18:13.416Z,89.37
2023-06-07T04:20:40.380Z,89.21
2023-06-07T04:23:07.421Z,89.34
2023-06-07T04:25:33.960Z,89.32
2023-06-07T04:28:02.235Z,89.33
2023-06-07T04:30:29.589Z,89.20
2023-06-07T04:32:56.083Z,89.16
2023-06-07T04:35:22.962Z,89.03
2023-06-07T04:37:49.675Z,88.95
2023-06-07T04:40:16.390Z,88.86
2023-06-07T04:42:53.348Z,88.57
2023-06-07T04:45:19.963Z,88.22
2023-06-07T04:47:46.620Z,87.91
2023-06-07T04:50:14.528Z,87.48
2023-06-07T04:52:40.925Z,87.43
2023-06-07T04:55:07.615Z,87.23
2023-06-07T04:57:34.267Z,87.13
2023-06-07T05:00:00.815Z,86.63
2023-06-07T05:02:34.484Z,86.69
2023-06-07T05:05:00.878Z,86.67
2023-06-07T05:07:28.047Z,86.59
2023-06-07T05:09:55.345Z,86.38
2023-06-07T05:12:22.608Z,86.14
2023-06-07T05:14:50.252Z,86.05
2023-06-07T05:17:17.057Z,85.60
2023-06-07T05:19:43.437Z,85.37
2023-06-07T05:22:10.086Z,85.06
2023-06-07T05:24:36.854Z,85.23
2023-06-07T05:27:03.348Z,85.40
2023-06-07T05:29:29.787Z,84.73
2023-06-07T05:31:56.855Z,84.46
2023-06-07T05:34:23.435Z,84.26
2023-06-07T05:36:49.987Z,83.97
2023-06-07T05:39:16.450Z,83.51
2023-06-07T05:41:44.218Z,83.43
2023-06-07T05:44:10.767Z,83.05
2023-06-07T05:46:37.302Z,82.43
2023-06-07T05:49:03.781Z,81.78
2023-06-07T05:51:30.320Z,81.22
2023-06-07T05:53:56.706Z,80.81
2023-06-07T05:56:23.079Z,80.64
2023-06-07T05:58:49.493Z,80.73
2023-06-07T06:01:16.059Z,80.42
2023-06-07T06:03:42.497Z,80.43
2023-06-07T06:06:12.722Z,80.67
2023-06-07T06:08:39.205Z,80.29
2023-06-07T06:11:05.678Z,80.34
2023-06-07T06:13:32.565Z,79.99
2023-06-07T06:15:58.989Z,79.87
2023-06-07T06:18:25.541Z,79.49
2023-06-07T06:20:51.948Z,78.82
2023-06-07T06:23:18.444Z,78.33
2023-06-07T06:25:45.028Z,78.20
2023-06-07T06:28:11.481Z,77.98
2023-06-07T06:30:38.031Z,77.72
2023-06-07T06:33:04.490Z,77.75
2023-06-07T06:35:30.880Z,78.09
2023-06-07T06:37:57.413Z,77.95
2023-06-07T06:40:24.036Z,77.59
2023-06-07T06:42:50.424Z,77.20
2023-06-07T06:45:22.433Z,77.06
2023-06-07T06:47:48.918Z,76.85
2023-06-07T06:50:31.438Z,76.15
2023-06-07T06:52:59.868Z,75.54
2023-06-07T06:55:26.314Z,74.98
2023-06-07T06:57:52.712Z,74.72
2023-06-07T07:00:19.438Z,74.46
2023-06-07T07:02:46.022Z,74.35
2023-06-07T07:05:12.514Z,73.68
2023-06-07T07:07:38.971Z,73.23
2023-06-07T07:10:06.358Z,73.03
2023-06-07T07:12:32.937Z,72.77
2023-06-07T07:14:59.463Z,72.05
2023-06-07T07:17:25.913Z,71.40
2023-06-07T07:19:52.405Z,71.53
2023-06-07T07:22:18.890Z,71.63
2023-06-07T07:24:45.298Z,70.96
2023-06-07T07:27:11.740Z,70.54
2023-06-07T07:29:38.207Z,70.13
2023-06-07T07:32:04.916Z,69.55
2023-06-07T07:34:31.388Z,69.49
2023-06-07T07:36:57.859Z,69.40
2023-06-07T07:39:24.233Z,68.34
2023-06-07T07:41:50.613Z,68.15
2023-06-07T07:44:19.845Z,67.60
2023-06-07T07:46:46.278Z,67.50
2023-06-07T07:49:12.730Z,66.30
2023-06-07T07:51:39.251Z,66.03
2023-06-07T07:54:06.346Z,65.47
2023-06-07T07:56:32.725Z,64.76
2023-06-07T07:58:59.160Z,64.25
2023-06-07T08:01:25.541Z,63.96
2023-06-07T08:03:52.137Z,63.44
2023-06-07T08:06:18.829Z,62.81
2023-06-07T08:08:48.261Z,62.73
2023-06-07T08:11:14.723Z,62.26
2023-06-07T08:13:41.293Z,61.42
2023-06-07T08:16:07.756Z,60.77
2023-06-07T08:18:34.110Z,59.62
2023-06-07T08:21:00.750Z,58.69
2023-06-07T08:23:27.234Z,58.77
2023-06-07T08:25:53.641Z,58.37
2023-06-07T08:28:20.035Z,58.76
2023-06-07T08:30:46.548Z,58.29
2023-06-07T08:33:12.993Z,57.05
2023-06-07T08:35:39.442Z,56.56
2023-06-07T08:38:05.811Z,56.52
2023-06-07T08:40:32.905Z,56.49
2023-06-07T08:42:59.316Z,56.18
2023-06-07T08:45:25.698Z,55.83
2023-06-07T08:47:52.178Z,55.68
2023-06-07T08:50:21.182Z,55.54
2023-06-07T08:52:50.102Z,55.39
2023-06-07T08:55:16.865Z,55.30
2023-06-07T08:57:46.159Z,54.96
2023-06-07T09:00:13.130Z,55.47
2023-06-07T09:02:39.784Z,54.76
2023-06-07T09:05:06.860Z,54.36
2023-06-07T09:07:33.958Z,53.88
2023-06-07T09:10:00.426Z,54.00
2023-06-07T09:12:26.841Z,53.33
2023-06-07T09:14:53.900Z,52.01
2023-06-07T09:17:20.415Z,52.23
2023-06-07T09:19:46.880Z,51.87
2023-06-07T09:22:13.542Z,51.24
2023-06-07T09:24:40.338Z,49.55
2023-06-07T09:27:07.412Z,49.89
2023-06-07T09:29:43.454Z,50.17
2023-06-07T09:32:22.644Z,48.99
2023-06-07T09:34:52.069Z,49.62
2023-06-07T09:37:19.390Z,49.12
2023-06-07T09:39:45.898Z,49.04
2023-06-07T09:42:15.864Z,48.68
2023-06-07T09:44:42.624Z,47.40
2023-06-07T09:47:29.505Z,48.13
2023-06-07T09:50:05.824Z,47.38
2023-06-07T09:52:32.471Z,46.79
2023-06-07T09:54:58.862Z,46.69
2023-06-07T09:57:25.255Z,46.66
2023-06-07T09:59:58.959Z,46.68
2023-06-07T10:02:26.543Z,45.99
2023-06-07T10:04:54.427Z,45.34
2023-06-07T10:07:27.041Z,45.12
2023-06-07T10:09:54.045Z,44.94
2023-06-07T10:12:22.368Z,45.16
2023-06-07T10:14:49.304Z,45.76
2023-06-07T10:17:16.803Z,45.08
2023-06-07T10:19:49.561Z,44.57
2023-06-07T10:22:20.111Z,43.83
2023-06-07T10:24:56.973Z,43.42
2023-06-07T10:27:24.223Z,42.33
2023-06-07T10:30:01.961Z,42.71
2023-06-07T10:32:29.485Z,42.08
2023-06-07T10:34:56.583Z,42.11
2023-06-07T10:40:01.523Z,41.34
2023-06-07T10:53:51.883Z,37.53
2023-06-07T10:56:53.426Z,37.37
2023-06-07T10:59:20.865Z,37.15
2023-06-07T11:01:48.639Z,36.73
2023-06-07T11:04:33.759Z,37.27
2023-06-07T11:07:16.719Z,36.48
2023-06-07T11:09:47.769Z,36.31
2023-06-07T11:20:04.434Z,33.81
2023-06-07T11:22:52.462Z,32.69
2023-06-07T11:45:07.803Z,30.43
2023-06-07T12:28:26.329Z,29.84
2023-06-07T12:30:52.923Z,28.85
2023-06-07T12:33:19.409Z,28.00
2023-06-07T12:35:46.710Z,28.71
2023-06-07T12:38:13.196Z,28.78
2023-06-07T12:40:39.642Z,29.12
2023-06-07T12:43:06.160Z,29.44
2023-06-07T12:45:32.572Z,29.45
2023-06-07T12:48:00.002Z,28.62
2023-06-07T12:50:29.802Z,27.32
2023-06-07T12:52:59.051Z,26.76
2023-06-07T12:55:26.624Z,25.86
2023-06-07T12:57:55.913Z,25.36
2023-06-07T13:00:29.204Z,24.69
2023-06-07T13:02:58.868Z,24.56
2023-06-07T13:05:25.664Z,23.93
2023-06-07T13:07:52.103Z,23.23
2023-06-07T13:10:18.559Z,23.67
2023-06-07T13:12:44.945Z,23.51
2023-06-07T13:15:11.390Z,23.17
2023-06-07T13:17:38.176Z,22.55
2023-06-07T13:20:05.350Z,22.03
2023-06-07T13:22:32.274Z,21.40
2023-06-07T13:24:59.122Z,20.97
2023-06-07T13:27:25.549Z,20.91
2023-06-07T14:00:31.031Z,18.71
2023-06-07T14:02:57.519Z,18.95
2023-06-07T14:05:23.972Z,20.10
2023-06-07T14:07:50.491Z,19.71
2023-06-07T14:10:16.917Z,19.95
2023-06-07T14:12:43.321Z,19.97
2023-06-07T14:15:10.002Z,20.73
2023-06-07T14:17:36.432Z,20.13
2023-06-07T14:20:03.040Z,19.47
2023-06-07T14:22:29.656Z,19.17
2023-06-07T14:24:56.039Z,18.70
2023-06-07T14:27:22.661Z,18.58
2023-06-07T14:29:49.061Z,18.90
2023-06-07T14:32:15.751Z,19.72
2023-06-07T14:34:42.327Z,19.70
2023-06-07T14:37:08.734Z,19.76
2023-06-07T14:39:37.451Z,19.49
2023-06-07T14:42:03.976Z,19.75
2023-06-07T14:44:30.476Z,20.14
2023-06-07T14:46:56.909Z,20.43
2023-06-07T14:49:23.320Z,20.04
2023-06-07T14:51:49.724Z,19.95
2023-06-07T14:54:18.910Z,19.58
2023-06-07T14:56:45.490Z,19.41
2023-06-07T14:59:13.855Z,19.78
2023-06-07T15:01:41.646Z,20.70
2023-06-07T15:04:08.611Z,21.50
2023-06-07T15:06:35.339Z,21.31
2023-06-07T15:09:02.127Z,21.64
2023-06-07T15:11:28.932Z,21.33
2023-06-07T15:13:55.874Z,21.25
2023-06-07T16:35:31.345Z,29.61
2023-06-07T16:38:46.461Z,29.27
2023-06-07T16:48:36.743Z,29.72
2023-06-07T16:52:06.937Z,30.02
2023-06-07T16:57:23.893Z,30.93
2023-06-07T16:59:52.380Z,31.28
2023-06-07T17:02:24.135Z,31.61
2023-06-07T17:05:02.458Z,32.26
2023-06-07T17:07:53.986Z,32.86
2023-06-07T17:10:29.656Z,33.18
2023-06-07T17:13:01.268Z,33.60
2023-06-07T17:15:27.708Z,34.24
2023-06-07T17:17:54.159Z,34.72
2023-06-07T17:20:20.526Z,35.40
2023-06-07T17:22:46.946Z,36.05
2023-06-07T17:25:13.371Z,36.45
2023-06-07T17:27:39.659Z,37.00
2023-06-07T17:30:09.053Z,37.55
2023-06-07T17:32:35.687Z,38.16
2023-06-07T17:35:05.596Z,38.57
2023-06-07T17:37:32.043Z,39.13
2023-06-07T17:39:58.722Z,39.45
2023-06-07T17:42:25.215Z,40.01
2023-06-07T17:44:51.972Z,40.53
2023-06-07T17:47:18.969Z,40.82
2023-06-07T17:49:45.727Z,41.23
2023-06-07T17:52:21.568Z,41.44
2023-06-07T17:54:51.224Z,41.69
2023-06-07T17:57:17.745Z,41.98
2023-06-07T17:59:45.021Z,42.38
2023-06-07T18:02:11.565Z,42.65
2023-06-07T18:04:38.360Z,42.97
2023-06-07T18:07:05.300Z,43.55
2023-06-07T18:09:34.741Z,43.83
2023-06-07T18:12:01.600Z,44.34
2023-06-07T18:14:28.408Z,44.51
2023-06-07T18:16:57.586Z,44.95
2023-06-07T18:19:24.373Z,45.41
2023-06-07T18:21:53.562Z,45.96
2023-06-07T18:24:24.270Z,46.56
2023-06-07T18:26:50.929Z,46.92
2023-06-07T18:29:17.556Z,47.53
2023-06-07T18:31:44.057Z,47.57
2023-06-07T18:34:10.897Z,48.09
2023-06-07T18:36:37.592Z,48.35
2023-06-07T18:39:04.038Z,48.79
2023-06-07T18:41:33.875Z,48.98
2023-06-07T18:44:00.377Z,49.27
2023-06-07T18:46:27.120Z,49.46
2023-06-07T18:48:53.634Z,49.88
2023-06-07T18:51:20.108Z,50.00
2023-06-07T18:53:46.469Z,50.32
2023-06-07T18:59:14.180Z,51.03
2023-06-07T19:01:51.389Z,51.30
2023-06-07T19:04:19.152Z,51.58
2023-06-07T19:06:50.434Z,51.82
2023-06-07T19:09:21.357Z,52.10
2023-06-07T19:11:47.766Z,52.32
2023-06-07T19:14:14.464Z,52.41
2023-06-07T19:16:41.181Z,52.60
2023-06-07T19:19:07.954Z,52.75
2023-06-07T19:21:34.446Z,52.94
2023-06-07T19:24:04.097Z,53.17
2023-06-07T19:26:31.034Z,53.28
2023-06-07T19:28:58.705Z,53.47
2023-06-07T19:31:25.316Z,53.81
2023-06-07T19:33:52.225Z,54.01
2023-06-07T19:36:18.728Z,54.27
2023-06-07T19:38:45.119Z,54.54
2023-06-07T19:41:26.784Z,54.84
2023-06-07T19:43:53.587Z,55.03
2023-06-07T19:46:20.027Z,55.31
2023-06-07T19:48:46.569Z,55.29
2023-06-07T19:51:13.326Z,55.53
2023-06-07T19:53:39.850Z,55.78
2023-06-07T19:56:06.275Z,56.11
2023-06-07T19:58:32.720Z,56.33
2023-06-07T20:00:59.183Z,56.54
2023-06-07T20:03:25.848Z,56.93
2023-06-07T20:05:53.478Z,57.30
2023-06-07T20:08:19.875Z,57.63
2023-06-07T20:10:46.525Z,58.03
2023-06-07T20:13:13.588Z,58.37
2023-06-07T20:15:40.148Z,58.51
2023-06-07T20:18:06.617Z,58.66
2023-06-07T20:20:33.331Z,59.00
2023-06-07T20:23:00.856Z,59.14
2023-06-07T20:25:27.365Z,59.46
2023-06-07T20:27:54.244Z,59.71
2023-06-07T20:30:20.777Z,59.86
2023-06-07T20:32:47.350Z,60.13
2023-06-07T20:35:14.095Z,60.30
2023-06-07T20:40:41.874Z,60.67
2023-06-07T20:43:08.386Z,60.95
2023-06-07T20:45:34.914Z,61.12
2023-06-07T20:48:01.700Z,60.93
2023-06-07T20:50:28.264Z,61.31
2023-06-07T20:52:54.726Z,61.39
2023-06-07T20:55:21.184Z,61.70
2023-06-07T20:57:48.255Z,62.19
2023-06-07T21:00:14.861Z,62.21
2023-06-07T21:02:41.455Z,62.26
2023-06-07T21:05:08.153Z,62.73
2023-06-07T21:07:34.874Z,62.98
2023-06-07T21:10:01.410Z,63.19
2023-06-07T21:12:28.279Z,63.39
2023-06-07T21:14:54.704Z,63.70
2023-06-07T21:17:21.501Z,63.95
2023-06-07T21:19:48.042Z,64.00
2023-06-07T21:22:14.523Z,64.08
2023-06-07T21:24:40.925Z,64.11
2023-06-07T21:27:07.424Z,63.88
2023-06-07T21:29:34.060Z,63.92
2023-06-07T21:32:00.796Z,64.24
2023-06-07T21:34:27.648Z,64.40
2023-06-07T21:36:54.034Z,64.84
2023-06-07T21:39:20.498Z,64.95
2023-06-07T21:41:46.981Z,65.19
2023-06-07T21:44:13.371Z,65.62
2023-06-07T21:46:39.872Z,66.15
2023-06-07T21:49:06.439Z,66.48
2023-06-07T21:52:04.679Z,66.63
2023-06-07T21:54:31.302Z,66.69
2023-06-07T21:57:14.382Z,66.98
2023-06-07T21:59:41.691Z,67.26
2023-06-07T22:02:09.511Z,67.34
2023-06-07T22:04:36.062Z,67.31
2023-06-07T22:07:09.686Z,67.38
2023-06-07T22:09:38.382Z,67.04
2023-06-07T22:12:14.239Z,66.71
2023-06-07T22:14:40.879Z,67.10
2023-06-07T22:17:07.341Z,66.82
2023-06-07T22:19:33.839Z,67.01
2023-06-07T22:22:00.292Z,67.54
2023-06-07T22:24:26.710Z,67.89
2023-06-07T22:26:53.801Z,68.31
2023-06-07T22:29:20.184Z,68.41
2023-06-07T22:31:46.894Z,68.54
2023-06-07T22:34:14.370Z,68.68
2023-06-07T22:36:40.821Z,68.80
2023-06-07T22:39:08.893Z,68.81
2023-06-07T22:41:35.408Z,68.90
2023-06-07T22:44:01.984Z,68.88
2023-06-07T22:46:28.591Z,68.88
2023-06-07T22:48:55.184Z,69.03
2023-06-07T22:51:21.820Z,69.00
2023-06-07T22:53:48.146Z,69.12
2023-06-07T22:56:14.957Z,69.30
2023-06-07T22:58:41.543Z,69.22
2023-06-07T23:01:07.920Z,69.47
2023-06-07T23:03:34.506Z,69.71
2023-06-07T23:06:01.523Z,69.88
2023-06-07T23:08:28.169Z,69.81
2023-06-07T23:10:55.143Z,69.93
2023-06-07T23:13:22.741Z,70.21
2023-06-07T23:15:49.430Z,70.23
2023-06-07T23:18:16.342Z,70.41
2023-06-07T23:20:43.587Z,70.45
2023-06-07T23:23:10.218Z,70.57
2023-06-07T23:25:36.640Z,71.12
2023-06-07T23:28:03.039Z,71.27
2023-06-07T23:30:29.709Z,71.08
2023-06-07T23:32:56.332Z,70.91
2023-06-07T23:35:23.046Z,70.94
2023-06-07T23:37:49.559Z,71.09
2023-06-07T23:40:16.042Z,71.28
2023-06-07T23:42:42.941Z,71.41
2023-06-07T23:45:09.591Z,71.45
2023-06-07T23:47:36.158Z,71.94
2023-06-07T23:50:06.665Z,72.10
2023-06-07T23:52:33.471Z,72.22
2023-06-07T23:54:59.904Z,72.42
2023-06-07T23:57:26.615Z,72.34
2023-06-07T23:59:52.965Z,72.25
